createdAt,value
2023-10-12T00:00:42.478Z,16.75
2023-10-12T00:03:09.147Z,16.68
2023-10-12T00:05:39.856Z,16.53
2023-10-12T00:08:11.800Z,16.48
2023-10-12T00:10:47.787Z,16.64
2023-10-12T00:13:14.159Z,16.84
2023-10-12T00:15:47.199Z,16.93
2023-10-12T00:18:15.983Z,16.94
2023-10-12T00:20:45.067Z,16.94
2023-10-12T00:23:12.479Z,16.78
2023-10-12T00:25:46.997Z,16.77
2023-10-12T00:28:18.615Z,16.85
2023-10-12T00:30:47.937Z,16.73
2023-10-12T00:33:14.862Z,16.81
2023-10-12T00:35:41.238Z,16.91
2023-10-12T00:38:17.193Z,16.78
2023-10-12T00:41:05.381Z,16.83
2023-10-12T00:43:42.488Z,16.98
2023-10-12T00:46:22.870Z,16.91
2023-10-12T00:49:09.809Z,16.78
2023-10-12T00:51:36.240Z,16.64
2023-10-12T00:54:05.352Z,16.52
2023-10-12T00:56:32.060Z,16.40
2023-10-12T00:58:58.556Z,16.37
2023-10-12T01:01:25.264Z,16.36
2023-10-12T01:03:53.028Z,16.21
2023-10-12T01:06:29.238Z,16.27
2023-10-12T01:08:59.936Z,16.31
2023-10-12T01:11:35.031Z,16.40
2023-10-12T01:14:04.766Z,16.42
2023-10-12T01:16:43.894Z,16.46
2023-10-12T01:19:10.423Z,16.41
2023-10-12T01:21:39.844Z,16.47
2023-10-12T01:24:12.944Z,16.37
2023-10-12T01:26:39.665Z,16.24
2023-10-12T01:29:08.561Z,16.20
2023-10-12T01:31:37.329Z,16.22
2023-10-12T01:34:04.960Z,16.20
2023-10-12T01:36:33.863Z,16.44
2023-10-12T01:39:19.898Z,16.44
2023-10-12T01:41:48.747Z,16.33
2023-10-12T01:44:15.608Z,16.35
2023-10-12T01:46:42.350Z,16.42
2023-10-12T01:49:09.544Z,16.42
2023-10-12T01:51:41.276Z,16.19
2023-10-12T01:54:12.852Z,16.15
2023-10-12T01:56:39.495Z,16.18
2023-10-12T01:59:08.836Z,16.17
2023-10-12T02:01:35.577Z,16.18
2023-10-12T02:04:04.122Z,16.32
2023-10-12T02:06:30.771Z,16.20
2023-10-12T02:09:03.939Z,16.17
2023-10-12T02:11:38.081Z,16.20
2023-10-12T02:14:05.234Z,15.98
2023-10-12T02:16:39.079Z,15.78
2023-10-12T02:19:06.160Z,15.81
2023-10-12T02:21:34.684Z,15.89
2023-10-12T02:24:09.968Z,16.05
2023-10-12T02:26:41.169Z,16.05
2023-10-12T02:29:10.778Z,15.93
2023-10-12T02:31:46.490Z,15.84
2023-10-12T02:34:19.489Z,15.76
2023-10-12T02:37:07.869Z,15.81
2023-10-12T02:39:44.700Z,15.82
2023-10-12T02:42:17.617Z,15.91
2023-10-12T02:44:50.984Z,16.04
2023-10-12T02:47:23.548Z,16.05
2023-10-12T02:49:50.359Z,16.08
2023-10-12T02:52:17.321Z,16.07
2023-10-12T02:54:53.162Z,15.92
2023-10-12T02:57:26.308Z,15.90
2023-10-12T03:00:00.205Z,15.84
2023-10-12T03:02:36.028Z,15.89
2023-10-12T03:05:07.908Z,15.89
2023-10-12T03:07:37.691Z,16.00
2023-10-12T03:10:08.032Z,16.02
2023-10-12T03:12:45.370Z,15.96
2023-10-12T03:15:14.923Z,15.89
2023-10-12T03:17:53.481Z,15.86
2023-10-12T03:20:30.118Z,15.82
2023-10-12T03:23:01.034Z,15.73
2023-10-12T03:25:59.983Z,15.65
2023-10-12T03:28:37.271Z,15.49
2023-10-12T03:31:21.945Z,15.39
2023-10-12T03:33:54.617Z,15.37
2023-10-12T03:36:25.263Z,15.30
2023-10-12T03:39:07.550Z,15.33
2023-10-12T03:41:52.735Z,15.23
2023-10-12T03:44:20.261Z,15.19
2023-10-12T03:46:58.984Z,15.16
2023-10-12T03:49:28.503Z,15.15
2023-10-12T03:52:02.923Z,15.07
2023-10-12T03:54:33.417Z,15.05
2023-10-12T03:57:20.755Z,14.94
2023-10-12T04:00:00.824Z,15.01
2023-10-12T04:02:27.265Z,15.02
2023-10-12T04:05:16.857Z,14.93
2023-10-12T04:07:52.491Z,14.83
2023-10-12T04:10:45.308Z,14.82
2023-10-12T04:13:30.371Z,14.81
2023-10-12T04:16:06.655Z,14.83
2023-10-12T04:18:41.923Z,14.80
2023-10-12T04:21:10.227Z,14.84
2023-10-12T04:23:45.614Z,14.90
2023-10-12T04:26:15.010Z,14.80
2023-10-12T04:28:53.742Z,14.78
2023-10-12T04:31:34.827Z,14.87
2023-10-12T04:34:04.347Z,14.82
2023-10-12T04:36:46.529Z,14.74
2023-10-12T04:39:29.138Z,14.66
2023-10-12T04:41:55.544Z,14.61
2023-10-12T04:44:24.855Z,14.63
2023-10-12T04:47:00.985Z,14.53
2023-10-12T04:49:50.961Z,14.49
2023-10-12T04:52:18.836Z,14.46
2023-10-12T04:55:06.037Z,14.47
2023-10-12T04:57:35.897Z,14.40
2023-10-12T05:00:21.984Z,14.44
2023-10-12T05:02:51.417Z,14.51
2023-10-12T05:05:24.122Z,14.50
2023-10-12T05:07:55.636Z,14.52
2023-10-12T05:10:37.815Z,14.43
2023-10-12T05:13:08.257Z,14.41
2023-10-12T05:15:41.164Z,14.41
2023-10-12T05:18:11.211Z,14.42
2023-10-12T05:20:41.697Z,14.49
2023-10-12T05:23:08.102Z,14.51
2023-10-12T05:25:49.234Z,14.42
2023-10-12T05:28:22.318Z,14.48
2023-10-12T05:30:56.769Z,14.49
2023-10-12T05:33:49.675Z,14.45
2023-10-12T05:36:16.057Z,14.48
2023-10-12T05:39:07.073Z,14.51
2023-10-12T05:41:33.442Z,14.54
2023-10-12T05:44:00.028Z,14.55
2023-10-12T05:46:34.656Z,14.55
2023-10-12T05:49:02.882Z,14.60
2023-10-12T05:51:29.377Z,14.63
2023-10-12T05:54:07.596Z,14.54
2023-10-12T05:56:37.511Z,14.60
2023-10-12T05:59:05.171Z,14.61
2023-10-12T06:04:10.077Z,14.55
2023-10-12T06:06:37.346Z,14.48
2023-10-12T06:09:06.472Z,14.51
2023-10-12T06:11:32.828Z,14.53
2023-10-12T06:14:00.674Z,14.49
2023-10-12T06:16:31.177Z,14.36
2023-10-12T06:19:01.673Z,14.42
2023-10-12T06:21:30.556Z,14.52
2023-10-12T06:23:57.438Z,14.46
2023-10-12T06:26:29.983Z,14.49
2023-10-12T06:28:57.146Z,14.58
2023-10-12T06:31:23.824Z,14.55
2023-10-12T06:33:50.546Z,14.52
2023-10-12T06:36:23.974Z,14.54
2023-10-12T06:39:09.147Z,14.57
2023-10-12T06:41:35.522Z,14.54
2023-10-12T06:44:21.176Z,14.61
2023-10-12T06:46:50.736Z,14.57
2023-10-12T06:49:23.443Z,14.52
2023-10-12T06:51:54.910Z,14.48
2023-10-12T06:54:32.385Z,14.46
2023-10-12T06:57:19.260Z,14.42
2023-10-12T06:59:58.945Z,14.46
2023-10-12T07:02:26.122Z,14.46
2023-10-12T07:04:55.944Z,14.29
2023-10-12T07:07:28.239Z,14.42
2023-10-12T07:09:57.179Z,14.44
2023-10-12T07:12:24.775Z,14.32
2023-10-12T07:14:54.638Z,14.31
2023-10-12T07:17:32.433Z,14.32
2023-10-12T07:19:59.447Z,14.40
2023-10-12T07:22:25.912Z,14.29
2023-10-12T07:24:54.612Z,14.39
2023-10-12T07:27:23.270Z,14.34
2023-10-12T07:30:03.231Z,14.37
2023-10-12T07:32:39.599Z,14.30
2023-10-12T07:35:26.965Z,14.36
2023-10-12T07:37:53.394Z,14.32
2023-10-12T07:40:20.684Z,14.36
2023-10-12T07:42:50.023Z,14.41
2023-10-12T07:45:16.748Z,14.45
2023-10-12T07:47:43.582Z,14.47
2023-10-12T07:50:24.174Z,14.45
2023-10-12T07:52:56.972Z,14.47
2023-10-12T07:55:30.286Z,14.40
2023-10-12T07:57:58.077Z,14.38
2023-10-12T08:00:36.112Z,14.47
2023-10-12T08:03:09.321Z,14.50
2023-10-12T08:05:38.363Z,14.55
2023-10-12T08:08:04.763Z,14.52
2023-10-12T08:10:40.824Z,14.51
2023-10-12T08:13:23.519Z,14.53
2023-10-12T08:15:57.810Z,14.57
2023-10-12T08:18:43.912Z,14.49
2023-10-12T08:21:19.413Z,14.49
2023-10-12T08:23:53.556Z,14.49
2023-10-12T08:26:36.409Z,14.51
2023-10-12T08:29:10.122Z,14.41
2023-10-12T08:31:44.183Z,14.43
2023-10-12T08:34:29.885Z,14.51
2023-10-12T08:37:19.648Z,14.48
2023-10-12T08:39:53.159Z,14.52
2023-10-12T08:42:38.610Z,14.54
2023-10-12T08:45:10.429Z,14.50
2023-10-12T08:47:37.277Z,14.48
2023-10-12T08:50:09.475Z,14.53
2023-10-12T08:52:37.308Z,14.52
2023-10-12T08:55:13.565Z,14.49
2023-10-12T08:58:02.755Z,14.55
2023-10-12T09:00:35.749Z,14.61
2023-10-12T09:03:05.627Z,14.51
2023-10-12T09:05:32.226Z,14.52
2023-10-12T09:08:13.752Z,14.49
2023-10-12T09:10:58.905Z,14.53
2023-10-12T09:13:28.716Z,14.57
2023-10-12T09:15:58.940Z,14.53
2023-10-12T09:18:31.836Z,14.54
2023-10-12T09:20:58.284Z,14.50
2023-10-12T09:23:34.600Z,14.61
2023-10-12T09:26:15.963Z,14.67
2023-10-12T09:28:48.295Z,14.64
2023-10-12T09:31:37.213Z,14.64
2023-10-12T09:34:10.641Z,14.76
2023-10-12T09:36:44.835Z,14.77
2023-10-12T09:39:18.895Z,14.88
2023-10-12T09:41:55.260Z,14.81
2023-10-12T09:44:27.202Z,14.80
2023-10-12T09:46:57.060Z,14.84
2023-10-12T09:49:24.155Z,14.82
2023-10-12T09:51:50.891Z,14.90
2023-10-12T09:54:28.981Z,14.87
2023-10-12T09:56:58.304Z,14.81
2023-10-12T09:59:25.097Z,14.76
2023-10-12T10:01:51.769Z,14.81
2023-10-12T10:04:27.136Z,14.69
2023-10-12T10:06:53.872Z,14.84
2023-10-12T10:09:39.254Z,14.76
2023-10-12T10:12:09.576Z,14.91
2023-10-12T10:14:37.706Z,14.72
2023-10-12T10:17:06.688Z,14.78
2023-10-12T10:19:33.615Z,14.90
2023-10-12T10:22:26.372Z,14.93
2023-10-12T10:24:59.699Z,14.79
2023-10-12T10:27:37.426Z,14.80
2023-10-12T10:30:37.918Z,14.86
2023-10-12T10:33:14.084Z,14.93
2023-10-12T10:35:59.872Z,14.77
2023-10-12T10:38:33.505Z,14.76
2023-10-12T10:41:08.996Z,14.81
2023-10-12T10:43:39.049Z,14.75
2023-10-12T10:46:12.346Z,14.68
2023-10-12T10:49:14.816Z,14.69
2023-10-12T10:51:33.563Z,14.68
2023-10-12T10:54:00.828Z,14.71
2023-10-12T10:56:37.745Z,14.71
2023-10-12T10:59:08.054Z,14.70
2023-10-12T11:01:34.732Z,14.86
2023-10-12T11:04:03.059Z,14.84
2023-10-12T11:06:29.632Z,14.80
2023-10-12T11:09:15.739Z,14.76
2023-10-12T11:11:50.264Z,14.76
2023-10-12T11:14:19.135Z,14.76
2023-10-12T11:16:47.329Z,14.77
2023-10-12T11:19:13.803Z,14.74
2023-10-12T11:21:58.966Z,14.64
2023-10-12T11:24:25.578Z,14.69
2023-10-12T11:26:53.520Z,14.68
2023-10-12T11:29:19.991Z,14.76
2023-10-12T11:32:12.299Z,14.67
2023-10-12T11:34:53.449Z,14.76
2023-10-12T11:37:20.337Z,14.79
2023-10-12T11:39:47.265Z,14.81
2023-10-12T11:42:14.268Z,14.82
2023-10-12T11:44:43.858Z,14.75
2023-10-12T11:47:11.420Z,14.77
2023-10-12T11:49:47.573Z,14.82
2023-10-12T11:52:15.798Z,14.78
2023-10-12T11:54:42.563Z,14.77
2023-10-12T11:57:09.335Z,14.82
2023-10-12T11:59:36.570Z,14.82
2023-10-12T12:02:11.034Z,14.77
2023-10-12T12:04:57.240Z,14.73
2023-10-12T12:07:31.109Z,14.64
2023-10-12T12:10:02.493Z,14.58
2023-10-12T12:12:29.067Z,14.58
2023-10-12T12:14:55.542Z,14.52
2023-10-12T12:17:22.032Z,14.63
2023-10-12T12:19:48.585Z,14.56
2023-10-12T12:22:15.031Z,14.49
2023-10-12T12:24:47.945Z,14.55
2023-10-12T12:27:33.095Z,14.56
2023-10-12T12:30:09.151Z,14.61
2023-10-12T12:32:45.901Z,14.64
2023-10-12T12:35:13.209Z,14.54
2023-10-12T12:37:39.638Z,14.49
2023-10-12T12:40:35.366Z,14.46
2023-10-12T12:43:01.973Z,14.46
2023-10-12T12:45:28.461Z,14.51
2023-10-12T12:47:56.916Z,14.40
2023-10-12T12:50:23.397Z,14.47
2023-10-12T12:52:49.798Z,14.55
2023-10-12T12:55:19.546Z,14.60
2023-10-12T12:57:47.092Z,14.57
2023-10-12T13:00:20.729Z,14.66
2023-10-12T13:02:47.596Z,14.69
2023-10-12T13:05:15.609Z,14.61
2023-10-12T13:07:42.364Z,14.57
2023-10-12T13:10:12.665Z,14.55
2023-10-12T13:12:42.322Z,14.48
2023-10-12T13:15:10.990Z,14.54
2023-10-12T13:17:38.168Z,14.54
2023-10-12T13:20:05.146Z,14.61
2023-10-12T13:22:31.908Z,14.58
2023-10-12T13:24:58.344Z,14.60
2023-10-12T13:27:28.470Z,14.62
2023-10-12T13:30:00.994Z,14.65
2023-10-12T13:32:27.811Z,14.61
2023-10-12T13:34:59.109Z,14.64
2023-10-12T13:37:31.563Z,14.66
2023-10-12T13:39:58.837Z,14.65
2023-10-12T13:42:25.365Z,14.69
2023-10-12T13:44:51.989Z,14.65
2023-10-12T13:47:18.380Z,14.70
2023-10-12T13:49:44.810Z,14.69
2023-10-12T13:52:11.370Z,14.75
2023-10-12T13:54:37.995Z,14.74
2023-10-12T13:57:08.887Z,14.76
2023-10-12T13:59:35.313Z,14.71
2023-10-12T14:02:06.468Z,14.75
2023-10-12T14:04:34.785Z,14.67
2023-10-12T14:07:04.833Z,14.77
2023-10-12T14:09:32.544Z,14.74
2023-10-12T14:11:59.146Z,14.72
2023-10-12T14:14:25.787Z,14.79
2023-10-12T14:16:52.437Z,14.72
2023-10-12T14:19:24.184Z,14.65
2023-10-12T14:21:54.063Z,14.65
2023-10-12T14:24:27.758Z,14.68
2023-10-12T14:26:59.586Z,14.70
2023-10-12T14:29:26.736Z,14.87
2023-10-12T14:31:53.503Z,14.89
2023-10-12T14:34:19.945Z,14.88
2023-10-12T14:36:46.458Z,14.82
2023-10-12T14:39:23.312Z,14.89
2023-10-12T14:41:49.877Z,14.88
2023-10-12T14:44:17.642Z,14.87
2023-10-12T14:46:46.377Z,14.86
2023-10-12T14:49:12.843Z,14.97
2023-10-12T14:51:39.270Z,14.91
2023-10-12T14:54:07.992Z,14.97
2023-10-12T14:56:34.375Z,14.95
2023-10-12T14:59:00.744Z,14.93
2023-10-12T15:01:30.914Z,14.88
2023-10-12T15:03:57.840Z,14.86
2023-10-12T15:06:24.431Z,14.79
2023-10-12T15:08:54.295Z,14.78
2023-10-12T15:11:21.015Z,14.79
2023-10-12T15:13:49.908Z,14.92
2023-10-12T15:16:16.420Z,14.93
2023-10-12T15:18:43.717Z,14.91
2023-10-12T15:21:25.548Z,14.92
2023-10-12T15:23:55.866Z,14.92
2023-10-12T15:26:24.045Z,14.95
2023-10-12T15:28:50.985Z,14.95
2023-10-12T15:31:22.383Z,14.89
2023-10-12T15:33:51.305Z,15.01
2023-10-12T15:36:18.698Z,15.03
2023-10-12T15:38:45.294Z,14.97
2023-10-12T15:41:11.666Z,14.94
2023-10-12T15:43:38.055Z,14.92
2023-10-12T15:46:11.353Z,14.86
2023-10-12T15:48:38.071Z,15.05
2023-10-12T15:51:04.471Z,14.97
2023-10-12T15:53:31.476Z,14.99
2023-10-12T15:55:57.986Z,14.97
2023-10-12T15:58:24.482Z,14.99
2023-10-12T16:00:50.959Z,14.99
2023-10-12T16:03:20.575Z,14.88
2023-10-12T16:05:47.083Z,14.91
2023-10-12T16:08:15.669Z,14.86
2023-10-12T16:10:45.584Z,14.89
2023-10-12T16:13:11.988Z,14.87
2023-10-12T16:15:41.174Z,14.89
2023-10-12T16:18:09.398Z,14.93
2023-10-12T16:20:36.129Z,14.93
2023-10-12T16:23:02.550Z,14.92
2023-10-12T16:25:30.039Z,14.94
2023-10-12T16:27:56.674Z,14.93
2023-10-12T16:30:23.104Z,14.88
2023-10-12T16:32:50.194Z,14.92
2023-10-12T16:35:21.090Z,14.88
2023-10-12T16:37:49.329Z,14.88
2023-10-12T16:40:19.544Z,14.81
2023-10-12T16:42:46.346Z,14.93
2023-10-12T16:45:15.423Z,14.93
2023-10-12T16:47:46.042Z,14.99
2023-10-12T16:50:12.628Z,14.96
2023-10-12T16:52:39.076Z,14.90
2023-10-12T16:55:06.275Z,15.04
2023-10-12T16:57:32.981Z,14.95
2023-10-12T16:59:59.361Z,14.90
2023-10-12T17:02:25.833Z,14.88
2023-10-12T17:05:00.528Z,14.96
2023-10-12T17:07:27.240Z,14.88
2023-10-12T17:09:54.104Z,14.92
2023-10-12T17:12:20.827Z,14.93
2023-10-12T17:14:47.291Z,14.94
2023-10-12T17:17:13.764Z,14.95
2023-10-12T17:19:40.157Z,14.96
2023-10-12T17:22:07.070Z,14.93
2023-10-12T17:24:33.825Z,14.95
2023-10-12T17:27:00.217Z,14.95
2023-10-12T17:29:28.047Z,14.92
2023-10-12T17:31:54.793Z,14.81
2023-10-12T17:34:21.802Z,14.83
2023-10-12T17:36:48.622Z,14.83
2023-10-12T17:39:21.555Z,14.81
2023-10-12T17:41:48.788Z,14.82
2023-10-12T17:44:15.590Z,14.79
2023-10-12T17:46:42.316Z,14.76
2023-10-12T17:49:08.783Z,14.78
2023-10-12T17:51:36.164Z,14.79
2023-10-12T17:54:02.523Z,14.75
2023-10-12T17:56:28.873Z,14.68
2023-10-12T17:58:55.981Z,14.63
2023-10-12T18:01:23.565Z,14.62
2023-10-12T18:03:50.602Z,14.58
2023-10-12T18:06:17.636Z,14.53
2023-10-12T18:08:44.717Z,14.59
2023-10-12T18:11:14.314Z,14.53
2023-10-12T18:13:41.273Z,14.55
2023-10-12T18:16:07.820Z,14.60
2023-10-12T18:18:34.509Z,14.60
2023-10-12T18:21:00.886Z,14.65
2023-10-12T18:23:27.887Z,14.57
2023-10-12T18:25:54.263Z,14.57
2023-10-12T18:28:20.920Z,14.59
2023-10-12T18:30:57.448Z,14.55
2023-10-12T18:33:24.368Z,14.54
2023-10-12T18:35:50.802Z,14.54
2023-10-12T18:38:17.226Z,14.57
2023-10-12T18:40:43.681Z,14.60
2023-10-12T18:43:13.889Z,14.59
2023-10-12T18:46:01.045Z,14.58
2023-10-12T18:48:29.457Z,14.61
2023-10-12T18:51:02.540Z,14.62
2023-10-12T18:53:29.739Z,14.57
2023-10-12T18:56:03.390Z,14.63
2023-10-12T18:58:30.080Z,14.67
2023-10-12T19:01:00.022Z,14.59
2023-10-12T19:03:29.866Z,14.68
2023-10-12T19:05:56.356Z,14.70
2023-10-12T19:08:22.954Z,14.63
2023-10-12T19:10:49.363Z,14.65
2023-10-12T19:13:23.731Z,14.61
2023-10-12T19:15:50.967Z,14.64
2023-10-12T19:18:17.436Z,14.62
2023-10-12T19:20:47.541Z,14.76
2023-10-12T19:23:17.123Z,14.74
2023-10-12T19:25:47.652Z,14.77
2023-10-12T19:28:16.430Z,14.67
2023-10-12T19:30:42.936Z,14.64
2023-10-12T19:33:12.623Z,14.66
2023-10-12T19:35:39.830Z,14.68
2023-10-12T19:38:07.730Z,14.80
2023-10-12T19:40:34.601Z,14.71
2023-10-12T19:43:04.903Z,14.73
2023-10-12T19:45:35.524Z,14.78
2023-10-12T19:48:03.537Z,14.83
2023-10-12T19:50:30.430Z,14.73
2023-10-12T19:52:56.914Z,14.66
2023-10-12T19:55:23.327Z,14.63
2023-10-12T19:57:49.990Z,14.66
2023-10-12T20:00:25.476Z,14.68
2023-10-12T20:02:55.621Z,14.71
2023-10-12T20:05:25.349Z,14.71
2023-10-12T20:07:52.107Z,14.67
2023-10-12T20:10:18.599Z,14.70
2023-10-12T20:12:44.979Z,14.71
2023-10-12T20:15:12.944Z,14.75
2023-10-12T20:17:43.520Z,14.71
2023-10-12T20:20:10.635Z,14.75
2023-10-12T20:22:38.630Z,14.82
2023-10-12T20:25:06.945Z,14.83
2023-10-12T20:27:35.325Z,14.83
2023-10-12T20:30:01.938Z,14.79
2023-10-12T20:32:29.662Z,14.80
2023-10-12T20:34:56.693Z,14.80
2023-10-12T20:37:23.860Z,14.81
2023-10-12T20:39:50.347Z,14.74
2023-10-12T20:42:16.948Z,14.75
2023-10-12T20:44:43.315Z,14.76
2023-10-12T20:47:10.388Z,14.76
2023-10-12T20:49:40.441Z,14.72
2023-10-12T20:52:07.143Z,14.78
2023-10-12T20:54:42.567Z,14.78
2023-10-12T20:57:09.097Z,14.74
2023-10-12T20:59:41.300Z,14.82
2023-10-12T21:02:13.701Z,14.71
2023-10-12T21:04:43.060Z,14.75
2023-10-12T21:07:12.116Z,14.79
2023-10-12T21:09:38.811Z,14.77
2023-10-12T21:12:15.368Z,14.81
2023-10-12T21:14:44.912Z,14.79
2023-10-12T21:17:20.093Z,14.80
2023-10-12T21:19:46.812Z,14.77
2023-10-12T21:22:19.042Z,14.75
2023-10-12T21:24:45.848Z,14.76
2023-10-12T21:27:12.567Z,14.72
2023-10-12T21:29:40.210Z,14.81
2023-10-12T21:32:06.745Z,14.83
2023-10-12T21:34:33.998Z,14.77
2023-10-12T21:37:05.588Z,14.72
2023-10-12T21:39:45.272Z,14.73
2023-10-12T21:42:12.553Z,14.78
2023-10-12T21:44:40.653Z,14.74
2023-10-12T21:47:13.875Z,14.75
2023-10-12T21:49:40.394Z,14.72
2023-10-12T21:52:07.155Z,14.74
2023-10-12T21:54:35.177Z,14.80
2023-10-12T21:57:01.546Z,14.78
2023-10-12T21:59:27.929Z,14.73
2023-10-12T22:02:14.984Z,14.71
2023-10-12T22:04:47.272Z,14.71
2023-10-12T22:07:14.820Z,14.73
2023-10-12T22:09:48.190Z,14.74
2023-10-12T22:12:15.208Z,14.74
2023-10-12T22:15:14.186Z,14.79
2023-10-12T22:17:48.041Z,14.74
2023-10-12T22:20:15.188Z,14.73
2023-10-12T22:22:41.948Z,14.71
2023-10-12T22:25:10.908Z,14.69
2023-10-12T22:27:41.452Z,14.76
2023-10-12T22:30:08.788Z,14.75
2023-10-12T22:32:35.358Z,14.77
2023-10-12T22:35:02.103Z,14.75
2023-10-12T22:37:28.589Z,14.77
2023-10-12T22:39:54.996Z,14.77
2023-10-12T22:42:21.503Z,14.76
2023-10-12T22:44:47.987Z,14.78
2023-10-12T22:47:14.415Z,14.74
2023-10-12T22:49:40.851Z,14.74
2023-10-12T22:52:11.121Z,14.74
2023-10-12T22:54:37.705Z,14.77
2023-10-12T22:57:06.269Z,14.73
2023-10-12T22:59:32.880Z,14.80
2023-10-12T23:01:59.347Z,14.74
2023-10-12T23:04:25.923Z,14.74
2023-10-12T23:06:53.260Z,14.77
2023-10-12T23:09:20.012Z,14.84
2023-10-12T23:11:49.567Z,14.83
2023-10-12T23:14:22.752Z,14.82
2023-10-12T23:16:52.765Z,14.89
2023-10-12T23:19:38.277Z,14.88
2023-10-12T23:22:17.758Z,14.89
2023-10-12T23:24:44.812Z,14.87
2023-10-12T23:27:13.898Z,14.88
2023-10-12T23:29:40.680Z,14.87
2023-10-12T23:32:08.818Z,15.01
2023-10-12T23:34:53.732Z,14.94
2023-10-12T23:37:26.455Z,14.99
2023-10-12T23:39:53.901Z,14.96
2023-10-12T23:42:23.708Z,14.95
2023-10-12T23:44:50.326Z,14.97
2023-10-12T23:47:17.948Z,15.06
2023-10-12T23:49:44.943Z,15.01
2023-10-12T23:52:13.590Z,15.07
2023-10-12T23:54:43.585Z,15.03
2023-10-12T23:57:11.509Z,15.05
2023-10-12T23:59:37.972Z,15.15
